Time;durP1;ratioP1;P1;durP2;ratioP2;P2;SDS_P1;SDS_P2;PMS_P1;PMS_P2;Temp;Humidity;BMP_temperature;BMP_pressure;BME280_temperature;BME280_humidity;BME280_pressure;Samples;Min_cycle;Max_cycle;Signal;HPM_P1;HPM_P2
2023/09/17 00:00:37;;;;;;;1.80;1.70;;;;;;;;;;5138129;27;20019;-78
2023/09/17 00:03:03;;;;;;;1.65;1.55;;;;;;;;;;5138619;27;20029;-78
2023/09/17 00:05:29;;;;;;;1.77;1.67;;;;;;;;;;5117727;28;20478;-79
2023/09/17 00:07:55;;;;;;;1.23;1.20;;;;;;;;;;5116441;28;20207;-79
2023/09/17 00:10:22;;;;;;;1.63;1.52;;;;;;;;;;5117047;28;20413;-79
2023/09/17 00:12:48;;;;;;;1.70;1.60;;;;;;;;;;5116723;28;20058;-79
2023/09/17 00:15:15;;;;;;;1.70;1.60;;;;;;;;;;5129525;27;20031;-79
2023/09/17 00:17:41;;;;;;;2.03;1.92;;;;;;;;;;5136919;28;20083;-79
2023/09/17 00:20:12;;;;;;;1.75;1.65;;;;;;;;;;5137252;28;20023;-79
2023/09/17 00:22:39;;;;;;;2.15;2.05;;;;;;;;;;5146093;27;20075;-78
2023/09/17 00:25:06;;;;;;;2.28;2.08;;;;;;;;;;5138225;27;20038;-76
2023/09/17 00:27:33;;;;;;;2.30;2.10;;;;;;;;;;5136086;27;20363;-77
2023/09/17 00:30:01;;;;;;;2.50;2.30;;;;;;;;;;5137284;27;20026;-77
2023/09/17 00:32:27;;;;;;;2.03;1.92;;;;;;;;;;5141479;27;20567;-77
2023/09/17 00:34:56;;;;;;;1.70;1.60;;;;;;;;;;5161389;27;20011;-77
2023/09/17 00:37:27;;;;;;;2.00;1.90;;;;;;;;;;5140241;27;20030;-77
2023/09/17 00:39:53;;;;;;;1.88;1.77;;;;;;;;;;5138788;27;20423;-77
2023/09/17 00:42:18;;;;;;;2.42;2.22;;;;;;;;;;5140892;27;20034;-79
2023/09/17 00:44:44;;;;;;;2.25;2.05;;;;;;;;;;5145666;27;20016;-77
2023/09/17 00:47:11;;;;;;;2.10;2.00;;;;;;;;;;5145190;27;20037;-77
2023/09/17 00:49:37;;;;;;;2.30;2.13;;;;;;;;;;5142401;27;20060;-79
2023/09/17 00:52:06;;;;;;;2.78;2.58;;;;;;;;;;5141206;27;20031;-79
2023/09/17 00:54:32;;;;;;;2.30;2.20;;;;;;;;;;5140964;27;20031;-78
2023/09/17 00:56:58;;;;;;;2.60;2.40;;;;;;;;;;5138172;27;20118;-78
2023/09/17 00:59:25;;;;;;;2.45;2.25;;;;;;;;;;5136667;27;20023;-78
2023/09/17 01:01:51;;;;;;;2.58;2.38;;;;;;;;;;5139119;27;20108;-77
2023/09/17 01:04:19;;;;;;;2.10;2.00;;;;;;;;;;5139028;27;20027;-78
2023/09/17 01:06:45;;;;;;;2.45;2.25;;;;;;;;;;5127682;27;20080;-77
2023/09/17 01:09:12;;;;;;;2.80;2.60;;;;;;;;;;5133592;27;20065;-78
2023/09/17 01:11:38;;;;;;;2.88;2.60;;;;;;;;;;5140383;27;20494;-78
2023/09/17 01:14:13;;;;;;;2.50;2.30;;;;;;;;;;5140430;27;20019;-78
2023/09/17 01:16:43;;;;;;;2.50;2.30;;;;;;;;;;5149258;27;20016;-77
2023/09/17 01:19:15;;;;;;;2.88;2.67;;;;;;;;;;5133904;28;20023;-76
2023/09/17 01:22:01;;;;;;;2.40;2.25;;;;;;;;;;5133253;28;20487;-77
2023/09/17 01:24:30;;;;;;;2.63;2.42;;;;;;;;;;5135238;28;20016;-76
2023/09/17 01:26:59;;;;;;;2.25;2.13;;;;;;;;;;5140540;27;20082;-79
2023/09/17 01:29:26;;;;;;;2.55;2.35;;;;;;;;;;5141232;27;20370;-78
2023/09/17 01:31:55;;;;;;;2.83;2.63;;;;;;;;;;5140954;27;20035;-79
2023/09/17 01:34:22;;;;;;;2.47;2.28;;;;;;;;;;5139941;27;20512;-78
2023/09/17 01:36:48;;;;;;;2.42;2.22;;;;;;;;;;5139084;27;20039;-78
2023/09/17 01:39:18;;;;;;;2.20;2.10;;;;;;;;;;5138516;27;20027;-77
2023/09/17 01:41:45;;;;;;;2.47;2.28;;;;;;;;;;5126259;27;20028;-77
2023/09/17 01:44:11;;;;;;;2.22;2.08;;;;;;;;;;5132379;27;20027;-77
2023/09/17 01:46:39;;;;;;;2.50;2.30;;;;;;;;;;5145721;27;20125;-77
2023/09/17 01:49:05;;;;;;;2.40;2.20;;;;;;;;;;5138116;27;20023;-77
2023/09/17 01:51:32;;;;;;;2.80;2.60;;;;;;;;;;5139458;27;20110;-78
2023/09/17 01:53:59;;;;;;;2.35;2.25;;;;;;;;;;5138660;27;20019;-78
2023/09/17 01:56:25;;;;;;;2.08;1.98;;;;;;;;;;5139711;27;20019;-78
2023/09/17 01:58:51;;;;;;;2.30;2.10;;;;;;;;;;5123651;27;20367;-78
2023/09/17 02:01:18;;;;;;;2.20;2.05;;;;;;;;;;5118839;28;20027;-79
2023/09/17 02:03:44;;;;;;;2.60;2.40;;;;;;;;;;5118969;28;20064;-78
2023/09/17 02:06:10;;;;;;;2.22;2.05;;;;;;;;;;5117686;28;20418;-76
2023/09/17 02:08:36;;;;;;;2.30;2.10;;;;;;;;;;5120647;27;20051;-77
2023/09/17 02:11:04;;;;;;;2.35;2.15;;;;;;;;;;5133819;27;20038;-77
2023/09/17 02:13:30;;;;;;;2.42;2.22;;;;;;;;;;5136628;27;20064;-78
2023/09/17 02:15:56;;;;;;;2.50;2.30;;;;;;;;;;5152519;27;20022;-77
2023/09/17 02:18:23;;;;;;;2.15;2.05;;;;;;;;;;5147320;27;20039;-78
2023/09/17 02:20:49;;;;;;;2.10;2.00;;;;;;;;;;5119002;28;20023;-78
2023/09/17 02:23:15;;;;;;;2.40;2.20;;;;;;;;;;5120720;28;20083;-78
2023/09/17 02:25:41;;;;;;;2.40;2.30;;;;;;;;;;5121148;28;20030;-79
2023/09/17 02:28:07;;;;;;;2.03;1.92;;;;;;;;;;5118088;28;20019;-79
2023/09/17 02:30:33;;;;;;;2.25;2.13;;;;;;;;;;5137550;27;20034;-79
2023/09/17 02:32:59;;;;;;;2.10;2.00;;;;;;;;;;5161055;27;20011;-76
2023/09/17 02:35:25;;;;;;;1.80;1.70;;;;;;;;;;5147440;27;20408;-78
2023/09/17 02:37:52;;;;;;;1.92;1.83;;;;;;;;;;5136983;27;20493;-77
2023/09/17 02:40:18;;;;;;;2.03;1.92;;;;;;;;;;5122062;27;20019;-77
2023/09/17 02:42:45;;;;;;;1.75;1.65;;;;;;;;;;5116020;28;20030;-78
2023/09/17 02:45:11;;;;;;;1.77;1.67;;;;;;;;;;5123813;27;20038;-78
2023/09/17 02:47:40;;;;;;;1.92;1.83;;;;;;;;;;5149936;27;20034;-79
2023/09/17 02:50:06;;;;;;;1.77;1.67;;;;;;;;;;5139810;27;20078;-76
2023/09/17 02:52:32;;;;;;;1.60;1.50;;;;;;;;;;5134474;27;20042;-78
2023/09/17 02:54:58;;;;;;;1.63;1.52;;;;;;;;;;5147969;27;20472;-78
2023/09/17 02:57:24;;;;;;;1.70;1.60;;;;;;;;;;5145607;27;20075;-77
2023/09/17 02:59:51;;;;;;;1.55;1.45;;;;;;;;;;5146797;27;20023;-76
2023/09/17 03:02:17;;;;;;;1.65;1.55;;;;;;;;;;5144290;27;20453;-77
2023/09/17 03:04:44;;;;;;;1.40;1.40;;;;;;;;;;5146681;27;20021;-77
2023/09/17 03:07:10;;;;;;;1.63;1.52;;;;;;;;;;5135139;27;20015;-77
2023/09/17 03:09:36;;;;;;;1.63;1.52;;;;;;;;;;5144467;27;20022;-77
2023/09/17 03:12:02;;;;;;;1.48;1.38;;;;;;;;;;5136202;27;20023;-77
2023/09/17 03:14:28;;;;;;;1.77;1.67;;;;;;;;;;5137053;27;20363;-78
2023/09/17 03:16:55;;;;;;;1.98;1.88;;;;;;;;;;5137759;27;20395;-77
2023/09/17 03:19:21;;;;;;;2.25;2.10;;;;;;;;;;5156615;27;20392;-77
2023/09/17 03:21:47;;;;;;;1.85;1.75;;;;;;;;;;5155404;27;20155;-77
2023/09/17 03:24:15;;;;;;;1.58;1.48;;;;;;;;;;5157573;27;20485;-77
2023/09/17 03:26:41;;;;;;;1.92;1.83;;;;;;;;;;5156533;27;20357;-77
2023/09/17 03:29:08;;;;;;;1.80;1.70;;;;;;;;;;5116862;27;20030;-77
2023/09/17 03:31:37;;;;;;;1.83;1.73;;;;;;;;;;5116510;28;20505;-78
2023/09/17 03:34:03;;;;;;;1.85;1.75;;;;;;;;;;5114430;28;20034;-76
2023/09/17 03:36:29;;;;;;;1.80;1.70;;;;;;;;;;5114367;28;20024;-77
2023/09/17 03:38:55;;;;;;;1.50;1.42;;;;;;;;;;5128013;27;20047;-77
2023/09/17 03:41:21;;;;;;;1.73;1.63;;;;;;;;;;5136780;27;20049;-77
2023/09/17 03:43:47;;;;;;;1.67;1.58;;;;;;;;;;5138393;27;20113;-77
2023/09/17 03:46:13;;;;;;;1.80;1.70;;;;;;;;;;5137215;28;20389;-78
2023/09/17 03:48:39;;;;;;;2.00;1.90;;;;;;;;;;5132480;27;20049;-79
2023/09/17 03:51:06;;;;;;;1.90;1.80;;;;;;;;;;5118410;28;20028;-79
2023/09/17 03:53:32;;;;;;;1.70;1.60;;;;;;;;;;5116997;28;20043;-78
2023/09/17 03:55:58;;;;;;;1.75;1.65;;;;;;;;;;5126486;27;20055;-79
2023/09/17 03:58:24;;;;;;;1.67;1.58;;;;;;;;;;5137926;27;20028;-78
2023/09/17 04:00:50;;;;;;;1.50;1.40;;;;;;;;;;5139739;27;20024;-77
2023/09/17 04:03:19;;;;;;;1.45;1.35;;;;;;;;;;5138836;27;20099;-79
2023/09/17 04:05:46;;;;;;;1.80;1.70;;;;;;;;;;5141201;27;20011;-78
2023/09/17 04:08:12;;;;;;;1.33;1.23;;;;;;;;;;5132824;27;20011;-77
2023/09/17 04:10:38;;;;;;;1.73;1.63;;;;;;;;;;5151089;27;20094;-77
2023/09/17 04:13:04;;;;;;;1.48;1.40;;;;;;;;;;5118897;28;20023;-78
2023/09/17 04:15:30;;;;;;;1.35;1.30;;;;;;;;;;5129935;27;20027;-77
2023/09/17 04:17:56;;;;;;;1.80;1.70;;;;;;;;;;5122233;27;20490;-78
2023/09/17 04:20:23;;;;;;;1.42;1.38;;;;;;;;;;5136659;27;20031;-78
2023/09/17 04:22:50;;;;;;;1.70;1.60;;;;;;;;;;5141536;27;20030;-79
2023/09/17 04:25:18;;;;;;;1.83;1.73;;;;;;;;;;5142668;27;20026;-78
2023/09/17 04:27:45;;;;;;;1.65;1.55;;;;;;;;;;5141663;27;20039;-78
2023/09/17 04:30:13;;;;;;;1.80;1.70;;;;;;;;;;5134614;27;20043;-78
2023/09/17 04:32:39;;;;;;;1.48;1.38;;;;;;;;;;5160995;27;20031;-77
2023/09/17 04:35:07;;;;;;;1.25;1.15;;;;;;;;;;5145550;27;20056;-78
2023/09/17 04:37:34;;;;;;;1.58;1.48;;;;;;;;;;5142672;27;20047;-78
2023/09/17 04:40:00;;;;;;;1.80;1.70;;;;;;;;;;5141298;27;20020;-79
2023/09/17 04:42:27;;;;;;;1.50;1.40;;;;;;;;;;5139351;27;20023;-78
2023/09/17 04:44:53;;;;;;;1.58;1.48;;;;;;;;;;5146551;27;20118;-79
2023/09/17 04:47:19;;;;;;;1.60;1.50;;;;;;;;;;5161781;27;20023;-79
2023/09/17 04:49:45;;;;;;;1.70;1.60;;;;;;;;;;5162414;27;20438;-78
2023/09/17 04:52:11;;;;;;;1.20;1.20;;;;;;;;;;5120974;28;20059;-79
2023/09/17 04:54:40;;;;;;;1.67;1.58;;;;;;;;;;5120908;28;20099;-79
2023/09/17 04:57:07;;;;;;;1.38;1.35;;;;;;;;;;5120756;28;20027;-78
2023/09/17 04:59:33;;;;;;;1.83;1.73;;;;;;;;;;5120958;28;20023;-79
2023/09/17 05:01:59;;;;;;;1.40;1.30;;;;;;;;;;5121301;27;20028;-78
2023/09/17 05:04:26;;;;;;;1.38;1.38;;;;;;;;;;5120742;28;20036;-79
2023/09/17 05:06:52;;;;;;;1.67;1.58;;;;;;;;;;5120567;28;20020;-79
2023/09/17 05:09:18;;;;;;;1.20;1.20;;;;;;;;;;5120308;28;20023;-78
2023/09/17 05:11:44;;;;;;;1.50;1.40;;;;;;;;;;5131848;27;20046;-79
2023/09/17 05:14:11;;;;;;;1.40;1.30;;;;;;;;;;5130343;27;20031;-77
2023/09/17 05:16:38;;;;;;;1.45;1.35;;;;;;;;;;5134561;27;20078;-77
2023/09/17 05:19:04;;;;;;;1.38;1.27;;;;;;;;;;5139745;27;20466;-78
2023/09/17 05:21:30;;;;;;;1.35;1.30;;;;;;;;;;5141204;27;20019;-78
2023/09/17 05:23:56;;;;;;;1.20;1.20;;;;;;;;;;5130239;27;20470;-78
2023/09/17 05:26:23;;;;;;;1.38;1.33;;;;;;;;;;5139255;27;20724;-79
2023/09/17 05:28:49;;;;;;;1.27;1.23;;;;;;;;;;5139192;27;20486;-78
2023/09/17 05:31:15;;;;;;;1.17;1.17;;;;;;;;;;5138909;27;20080;-78
2023/09/17 05:33:41;;;;;;;1.08;1.08;;;;;;;;;;5119734;28;20034;-78
2023/09/17 05:36:07;;;;;;;1.13;1.13;;;;;;;;;;5120703;28;20111;-78
2023/09/17 05:38:33;;;;;;;1.17;1.10;;;;;;;;;;5121006;28;20023;-78
2023/09/17 05:40:59;;;;;;;1.23;1.20;;;;;;;;;;5118820;28;20031;-79
2023/09/17 05:43:25;;;;;;;1.20;1.20;;;;;;;;;;5122018;27;20069;-79
2023/09/17 05:45:56;;;;;;;0.98;0.98;;;;;;;;;;5137981;27;20026;-79
2023/09/17 05:48:23;;;;;;;1.45;1.35;;;;;;;;;;5140108;27;20019;-79
2023/09/17 05:50:55;;;;;;;1.00;1.00;;;;;;;;;;5140383;27;20106;-78
2023/09/17 05:53:21;;;;;;;1.08;1.08;;;;;;;;;;5130800;27;20028;-78
2023/09/17 05:55:47;;;;;;;1.20;1.20;;;;;;;;;;5120647;28;20038;-78
2023/09/17 05:58:13;;;;;;;1.08;1.08;;;;;;;;;;5119055;28;20478;-80
2023/09/17 06:00:39;;;;;;;1.20;1.20;;;;;;;;;;5119123;28;20385;-77
2023/09/17 06:03:05;;;;;;;0.98;0.98;;;;;;;;;;5120944;27;20031;-79
2023/09/17 06:05:31;;;;;;;1.02;1.02;;;;;;;;;;5119375;27;20110;-79
2023/09/17 06:07:57;;;;;;;0.95;0.95;;;;;;;;;;5118027;28;20101;-78
2023/09/17 06:10:23;;;;;;;1.33;1.27;;;;;;;;;;5119243;28;20016;-78
2023/09/17 06:12:50;;;;;;;1.13;1.13;;;;;;;;;;5120900;27;20019;-78
2023/09/17 06:15:16;;;;;;;1.20;1.20;;;;;;;;;;5133039;27;20030;-79
2023/09/17 06:17:42;;;;;;;1.75;1.65;;;;;;;;;;5148109;27;20072;-77
2023/09/17 06:20:08;;;;;;;1.80;1.70;;;;;;;;;;5139328;27;20082;-78
2023/09/17 06:22:35;;;;;;;1.85;1.75;;;;;;;;;;5141244;27;20123;-79
2023/09/17 06:25:01;;;;;;;1.63;1.52;;;;;;;;;;5140434;27;20094;-79
2023/09/17 06:27:27;;;;;;;1.55;1.45;;;;;;;;;;5145295;27;20014;-78
2023/09/17 06:29:53;;;;;;;1.70;1.60;;;;;;;;;;5158998;27;20038;-78
2023/09/17 06:32:19;;;;;;;1.67;1.58;;;;;;;;;;5146738;27;20024;-78
2023/09/17 06:34:45;;;;;;;1.17;1.17;;;;;;;;;;5129498;27;20068;-77
2023/09/17 06:37:11;;;;;;;1.40;1.40;;;;;;;;;;5137160;27;20020;-80
2023/09/17 06:39:38;;;;;;;1.30;1.30;;;;;;;;;;5139843;27;20088;-78
2023/09/17 06:42:04;;;;;;;1.27;1.23;;;;;;;;;;5139801;27;20048;-78
2023/09/17 06:44:30;;;;;;;1.05;1.05;;;;;;;;;;5140242;27;20035;-78
2023/09/17 06:46:56;;;;;;;1.00;1.00;;;;;;;;;;5140443;27;20025;-77
2023/09/17 06:49:22;;;;;;;1.00;1.00;;;;;;;;;;5138685;27;20023;-78
2023/09/17 06:51:50;;;;;;;0.90;0.90;;;;;;;;;;5139941;27;20023;-78
2023/09/17 06:54:16;;;;;;;0.95;0.95;;;;;;;;;;5124976;27;20106;-79
2023/09/17 06:56:42;;;;;;;0.80;0.80;;;;;;;;;;5119421;28;20020;-79
2023/09/17 06:59:08;;;;;;;1.10;1.10;;;;;;;;;;5119228;28;20165;-79
2023/09/17 07:01:35;;;;;;;1.00;1.00;;;;;;;;;;5122196;28;20084;-79
2023/09/17 07:04:01;;;;;;;1.15;1.15;;;;;;;;;;5121023;28;20020;-79
2023/09/17 07:06:27;;;;;;;1.40;1.30;;;;;;;;;;5118247;28;20031;-78
2023/09/17 07:08:55;;;;;;;1.08;1.08;;;;;;;;;;5118969;28;20043;-79
2023/09/17 07:11:21;;;;;;;1.08;1.08;;;;;;;;;;5118489;28;20019;-79
2023/09/17 07:13:47;;;;;;;1.10;1.10;;;;;;;;;;5119495;27;20107;-79
2023/09/17 07:16:14;;;;;;;1.02;1.02;;;;;;;;;;5141145;27;20492;-78
2023/09/17 07:18:40;;;;;;;1.00;1.00;;;;;;;;;;5140324;27;20102;-79
2023/09/17 07:21:06;;;;;;;1.20;1.20;;;;;;;;;;5138576;27;20027;-79
2023/09/17 07:23:32;;;;;;;1.48;1.38;;;;;;;;;;5140322;27;20042;-79
2023/09/17 07:25:58;;;;;;;0.93;0.93;;;;;;;;;;5122589;27;20031;-80
2023/09/17 07:28:24;;;;;;;1.27;1.27;;;;;;;;;;5138818;27;20114;-79
2023/09/17 07:30:57;;;;;;;1.60;1.50;;;;;;;;;;5140304;27;20073;-78
2023/09/17 07:33:23;;;;;;;1.35;1.33;;;;;;;;;;5139039;27;20027;-78
2023/09/17 07:35:49;;;;;;;1.48;1.48;;;;;;;;;;5124840;27;20386;-78
2023/09/17 07:38:15;;;;;;;1.70;1.60;;;;;;;;;;5120336;28;20024;-78
2023/09/17 07:40:42;;;;;;;1.60;1.50;;;;;;;;;;5118114;28;20038;-78
2023/09/17 07:43:08;;;;;;;1.65;1.55;;;;;;;;;;5120128;28;20023;-78
2023/09/17 07:45:34;;;;;;;1.63;1.52;;;;;;;;;;5126752;28;20457;-78
2023/09/17 07:48:01;;;;;;;1.23;1.23;;;;;;;;;;5152409;27;20015;-78
2023/09/17 07:50:27;;;;;;;1.42;1.33;;;;;;;;;;5152995;27;20026;-78
2023/09/17 07:52:53;;;;;;;1.30;1.30;;;;;;;;;;5153251;28;20105;-78
2023/09/17 07:55:20;;;;;;;1.33;1.33;;;;;;;;;;5152514;28;20103;-78
2023/09/17 07:57:46;;;;;;;1.30;1.30;;;;;;;;;;5153309;28;20035;-78
2023/09/17 08:00:15;;;;;;;1.45;1.45;;;;;;;;;;5152772;27;20072;-78
2023/09/17 08:02:43;;;;;;;1.70;1.60;;;;;;;;;;5152388;27;20045;-78
2023/09/17 08:05:09;;;;;;;2.28;2.17;;;;;;;;;;5151245;27;20019;-77
2023/09/17 08:07:40;;;;;;;2.33;2.17;;;;;;;;;;5131323;28;20204;-77
2023/09/17 08:10:06;;;;;;;3.75;2.33;;;;;;;;;;5131706;28;20031;-78
2023/09/17 08:12:33;;;;;;;3.42;2.17;;;;;;;;;;5130834;28;20083;-78
2023/09/17 08:14:59;;;;;;;2.10;2.00;;;;;;;;;;5136704;28;20047;-78
2023/09/17 08:17:25;;;;;;;2.00;1.90;;;;;;;;;;5156532;27;20047;-78
2023/09/17 08:19:52;;;;;;;2.45;2.25;;;;;;;;;;5150727;28;20019;-79
2023/09/17 08:22:18;;;;;;;1.95;1.85;;;;;;;;;;5147812;28;20030;-78
2023/09/17 08:24:44;;;;;;;2.20;2.10;;;;;;;;;;5152461;27;20051;-79
2023/09/17 08:27:14;;;;;;;2.13;2.03;;;;;;;;;;5157969;27;20081;-77
2023/09/17 08:29:40;;;;;;;2.45;2.25;;;;;;;;;;5152343;27;20015;-78
2023/09/17 08:32:07;;;;;;;1.98;1.88;;;;;;;;;;5151833;27;20038;-79
2023/09/17 08:34:34;;;;;;;1.90;1.80;;;;;;;;;;5149460;27;20030;-78
2023/09/17 08:37:00;;;;;;;2.30;2.20;;;;;;;;;;5146064;27;20493;-79
2023/09/17 08:39:26;;;;;;;2.15;2.05;;;;;;;;;;5129756;28;20032;-77
2023/09/17 08:41:53;;;;;;;2.47;2.28;;;;;;;;;;5131089;28;20028;-78
2023/09/17 08:44:19;;;;;;;2.20;2.10;;;;;;;;;;5132033;28;20018;-77
2023/09/17 08:46:45;;;;;;;1.98;1.88;;;;;;;;;;5166508;27;20023;-78
2023/09/17 08:49:12;;;;;;;1.80;1.70;;;;;;;;;;5150041;27;20019;-78
2023/09/17 08:51:38;;;;;;;2.13;1.98;;;;;;;;;;5151809;27;20106;-79
2023/09/17 08:54:14;;;;;;;2.10;1.90;;;;;;;;;;5154128;27;20023;-78
2023/09/17 08:56:44;;;;;;;3.83;2.35;;;;;;;;;;5153309;27;20068;-77
2023/09/17 08:59:13;;;;;;;2.20;2.10;;;;;;;;;;5154282;27;20011;-78
2023/09/17 09:01:40;;;;;;;1.83;1.73;;;;;;;;;;5155021;27;20091;-78
2023/09/17 09:04:09;;;;;;;2.20;2.10;;;;;;;;;;5155737;27;20048;-78
2023/09/17 09:06:36;;;;;;;2.22;2.13;;;;;;;;;;5155654;27;20023;-78
2023/09/17 09:09:05;;;;;;;2.13;2.03;;;;;;;;;;5150087;27;20054;-78
2023/09/17 09:11:33;;;;;;;2.00;1.90;;;;;;;;;;5152314;27;20052;-76
2023/09/17 09:13:59;;;;;;;2.00;1.90;;;;;;;;;;5161324;27;20023;-78
2023/09/17 09:16:27;;;;;;;2.08;1.98;;;;;;;;;;5160031;27;20019;-79
2023/09/17 09:18:54;;;;;;;2.08;1.88;;;;;;;;;;5161006;27;20513;-78
2023/09/17 09:21:20;;;;;;;2.30;2.20;;;;;;;;;;5160635;27;20031;-79
2023/09/17 09:23:46;;;;;;;1.90;1.80;;;;;;;;;;5148410;27;20043;-78
2023/09/17 09:26:13;;;;;;;2.40;2.20;;;;;;;;;;5140774;27;20023;-78
2023/09/17 09:28:39;;;;;;;2.15;2.05;;;;;;;;;;5140163;27;20098;-78
2023/09/17 09:31:05;;;;;;;2.00;1.90;;;;;;;;;;5140805;27;20088;-77
2023/09/17 09:33:31;;;;;;;1.83;1.73;;;;;;;;;;5154374;27;20045;-78
2023/09/17 09:36:00;;;;;;;2.10;2.00;;;;;;;;;;5160690;27;20023;-78
2023/09/17 09:38:27;;;;;;;2.00;1.90;;;;;;;;;;5160433;27;20030;-77
2023/09/17 09:40:54;;;;;;;1.85;1.75;;;;;;;;;;5160563;27;20018;-77
2023/09/17 09:43:30;;;;;;;1.85;1.75;;;;;;;;;;5160623;27;20034;-77
2023/09/17 09:46:01;;;;;;;2.00;1.90;;;;;;;;;;5161048;27;20012;-78
2023/09/17 09:48:28;;;;;;;2.63;2.43;;;;;;;;;;5156552;27;20031;-79
2023/09/17 09:50:55;;;;;;;2.10;2.00;;;;;;;;;;5130530;27;20308;-79
2023/09/17 09:53:21;;;;;;;2.40;2.25;;;;;;;;;;5120967;28;20027;-78
2023/09/17 09:55:47;;;;;;;2.08;1.95;;;;;;;;;;5119883;28;20084;-79
2023/09/17 09:58:14;;;;;;;2.08;1.98;;;;;;;;;;5118799;28;20023;-79
2023/09/17 10:00:44;;;;;;;2.10;2.00;;;;;;;;;;5119664;27;20019;-79
2023/09/17 10:03:11;;;;;;;1.58;1.58;;;;;;;;;;5135967;27;20027;-78
2023/09/17 10:05:39;;;;;;;1.85;1.80;;;;;;;;;;5140482;27;20063;-80
2023/09/17 10:08:07;;;;;;;2.00;1.90;;;;;;;;;;5136608;27;20152;-78
2023/09/17 10:10:35;;;;;;;2.00;1.90;;;;;;;;;;5137212;27;20024;-78
2023/09/17 10:13:04;;;;;;;2.20;2.10;;;;;;;;;;5119557;27;20020;-79
2023/09/17 10:15:30;;;;;;;2.45;2.13;;;;;;;;;;5123249;28;20031;-79
2023/09/17 10:17:57;;;;;;;1.75;1.65;;;;;;;;;;5123711;28;20031;-79
2023/09/17 10:20:24;;;;;;;1.95;1.85;;;;;;;;;;5123202;27;20020;-79
2023/09/17 10:22:51;;;;;;;2.00;1.90;;;;;;;;;;5140940;27;20481;-80
2023/09/17 10:25:18;;;;;;;1.92;1.83;;;;;;;;;;5155934;27;20034;-77
2023/09/17 10:27:45;;;;;;;1.90;1.80;;;;;;;;;;5149665;27;20470;-79
2023/09/17 10:30:13;;;;;;;1.92;1.83;;;;;;;;;;5140595;27;20023;-78
2023/09/17 10:32:39;;;;;;;2.15;2.05;;;;;;;;;;5138011;27;20023;-79
2023/09/17 10:35:06;;;;;;;1.85;1.48;;;;;;;;;;5139600;27;20054;-79
2023/09/17 10:37:33;;;;;;;1.85;1.75;;;;;;;;;;5139711;27;20442;-79
2023/09/17 10:40:00;;;;;;;2.13;2.03;;;;;;;;;;5147707;27;20154;-79
2023/09/17 10:42:27;;;;;;;1.73;1.63;;;;;;;;;;5143456;27;20023;-79
2023/09/17 10:44:56;;;;;;;1.75;1.65;;;;;;;;;;5138742;27;20015;-78
2023/09/17 10:47:24;;;;;;;2.53;2.42;;;;;;;;;;5139125;27;20030;-77
2023/09/17 10:49:51;;;;;;;2.17;2.08;;;;;;;;;;5120202;27;20032;-79
2023/09/17 10:52:17;;;;;;;2.28;2.17;;;;;;;;;;5138666;27;20072;-79
2023/09/17 10:54:44;;;;;;;2.00;1.90;;;;;;;;;;5139401;27;20033;-78
2023/09/17 10:57:23;;;;;;;2.17;2.08;;;;;;;;;;5137945;27;20049;-79
2023/09/17 10:59:49;;;;;;;1.88;1.77;;;;;;;;;;5138783;27;20023;-79
2023/09/17 11:02:16;;;;;;;2.00;1.90;;;;;;;;;;5129345;27;20036;-78
2023/09/17 11:04:43;;;;;;;2.20;2.10;;;;;;;;;;5116184;28;20078;-78
2023/09/17 11:07:09;;;;;;;2.30;2.20;;;;;;;;;;5125342;27;20045;-79
2023/09/17 11:09:36;;;;;;;2.03;1.92;;;;;;;;;;5159355;27;20029;-79
2023/09/17 11:12:03;;;;;;;1.80;1.70;;;;;;;;;;5154863;27;20023;-79
2023/09/17 11:14:30;;;;;;;1.88;1.77;;;;;;;;;;5137031;27;20530;-80
2023/09/17 11:16:56;;;;;;;1.70;1.60;;;;;;;;;;5138600;27;20080;-79
2023/09/17 11:19:22;;;;;;;2.13;2.03;;;;;;;;;;5136480;27;20011;-78
2023/09/17 11:22:08;;;;;;;1.60;1.52;;;;;;;;;;5137646;27;20114;-79
2023/09/17 11:24:36;;;;;;;1.90;1.80;;;;;;;;;;5126704;28;20047;-79
2023/09/17 11:27:05;;;;;;;2.03;1.92;;;;;;;;;;5130292;28;20019;-78
2023/09/17 11:29:41;;;;;;;2.13;2.03;;;;;;;;;;5129755;28;20095;-79
2023/09/17 11:32:07;;;;;;;3.00;2.80;;;;;;;;;;5130204;28;20035;-78
2023/09/17 11:34:36;;;;;;;1.77;1.77;;;;;;;;;;5130628;28;20054;-78
2023/09/17 11:37:03;;;;;;;2.33;2.22;;;;;;;;;;5134411;27;20070;-78
2023/09/17 11:39:29;;;;;;;2.05;1.95;;;;;;;;;;5170723;27;20019;-78
2023/09/17 11:42:05;;;;;;;2.25;2.15;;;;;;;;;;5171286;27;20149;-79
2023/09/17 11:44:33;;;;;;;2.50;2.22;;;;;;;;;;5155457;27;20087;-79
2023/09/17 11:47:00;;;;;;;2.10;2.00;;;;;;;;;;5150742;27;20054;-79
2023/09/17 11:49:26;;;;;;;1.90;1.80;;;;;;;;;;5150393;27;20056;-79
2023/09/17 11:51:54;;;;;;;2.05;1.95;;;;;;;;;;5151208;27;20046;-79
2023/09/17 11:54:23;;;;;;;1.58;1.58;;;;;;;;;;5151493;27;20020;-78
2023/09/17 11:56:53;;;;;;;1.75;1.65;;;;;;;;;;5149151;27;20239;-78
2023/09/17 11:59:20;;;;;;;2.00;1.90;;;;;;;;;;5150748;27;20087;-78
2023/09/17 12:01:47;;;;;;;1.90;1.80;;;;;;;;;;5149840;27;20076;-78
2023/09/17 12:04:14;;;;;;;2.22;2.13;;;;;;;;;;5149836;27;20029;-78
2023/09/17 12:06:44;;;;;;;2.85;2.13;;;;;;;;;;5136686;27;20049;-78
2023/09/17 12:12:18;;;;;;;2.35;2.25;;;;;;;;;;5139497;27;20524;-78
2023/09/17 12:14:46;;;;;;;2.53;2.33;;;;;;;;;;5150504;27;20043;-78
2023/09/17 12:17:12;;;;;;;2.30;2.20;;;;;;;;;;5151244;27;20023;-79
2023/09/17 12:19:38;;;;;;;1.92;1.83;;;;;;;;;;5151493;27;20443;-78
2023/09/17 12:22:08;;;;;;;1.95;1.85;;;;;;;;;;5151158;27;20027;-78
2023/09/17 12:24:46;;;;;;;2.10;2.00;;;;;;;;;;5149389;27;20019;-78
2023/09/17 12:27:25;;;;;;;2.03;1.92;;;;;;;;;;5138730;28;20027;-78
2023/09/17 12:29:52;;;;;;;3.70;2.00;;;;;;;;;;5132694;28;20041;-78
2023/09/17 12:32:19;;;;;;;2.30;2.10;;;;;;;;;;5131334;28;20043;-77
2023/09/17 12:34:47;;;;;;;2.97;2.78;;;;;;;;;;5133797;28;20028;-77
2023/09/17 12:37:13;;;;;;;2.45;2.25;;;;;;;;;;5140313;27;20014;-77
2023/09/17 12:39:43;;;;;;;1.80;1.77;;;;;;;;;;5174206;27;20025;-78
2023/09/17 12:42:09;;;;;;;2.20;2.10;;;;;;;;;;5173193;27;20034;-78
2023/09/17 12:44:36;;;;;;;2.20;2.10;;;;;;;;;;5170666;27;20007;-79
2023/09/17 12:47:03;;;;;;;1.90;1.80;;;;;;;;;;5131158;27;20032;-77
2023/09/17 12:49:29;;;;;;;1.98;1.88;;;;;;;;;;5119252;28;20043;-77
2023/09/17 12:51:55;;;;;;;1.90;1.80;;;;;;;;;;5126396;28;20035;-76
2023/09/17 12:54:21;;;;;;;2.00;1.90;;;;;;;;;;5120064;28;20576;-77
2023/09/17 12:56:51;;;;;;;2.55;2.35;;;;;;;;;;5130001;28;20023;-78
2023/09/17 12:59:17;;;;;;;2.90;2.70;;;;;;;;;;5140723;28;20027;-76
2023/09/17 13:01:53;;;;;;;2.97;2.78;;;;;;;;;;5141086;28;20011;-78
2023/09/17 13:04:20;;;;;;;2.97;2.78;;;;;;;;;;5137175;28;20028;-77
2023/09/17 13:06:46;;;;;;;2.85;2.65;;;;;;;;;;5148059;27;20051;-78
2023/09/17 13:09:13;;;;;;;2.83;2.63;;;;;;;;;;5154829;27;20007;-77
2023/09/17 13:11:39;;;;;;;2.85;2.65;;;;;;;;;;5178267;27;20018;-77
2023/09/17 13:14:06;;;;;;;3.20;3.00;;;;;;;;;;5177456;27;20030;-78
2023/09/17 13:16:32;;;;;;;3.30;3.10;;;;;;;;;;5161124;27;20020;-77
2023/09/17 13:18:59;;;;;;;2.60;2.40;;;;;;;;;;5131869;28;20033;-77
2023/09/17 13:21:25;;;;;;;2.58;2.47;;;;;;;;;;5134057;28;20052;-77
2023/09/17 13:23:51;;;;;;;2.80;2.60;;;;;;;;;;5131173;28;20027;-77
2023/09/17 13:26:17;;;;;;;3.55;2.67;;;;;;;;;;5130153;28;20043;-77
2023/09/17 13:28:43;;;;;;;2.90;2.70;;;;;;;;;;5137013;27;20030;-77
2023/09/17 13:31:10;;;;;;;2.85;2.55;;;;;;;;;;5149258;27;20023;-77
2023/09/17 13:33:39;;;;;;;2.90;2.70;;;;;;;;;;5150710;27;20023;-77
2023/09/17 13:36:07;;;;;;;2.92;2.72;;;;;;;;;;5151170;27;20055;-76
2023/09/17 13:38:33;;;;;;;2.60;2.50;;;;;;;;;;5148930;27;20035;-76
2023/09/17 13:41:00;;;;;;;2.80;2.45;;;;;;;;;;5170580;27;20023;-77
2023/09/17 13:43:26;;;;;;;2.80;2.60;;;;;;;;;;5171640;27;20078;-76
2023/09/17 13:45:57;;;;;;;2.90;2.70;;;;;;;;;;5170690;27;20023;-77
2023/09/17 13:48:24;;;;;;;2.58;2.38;;;;;;;;;;5154288;27;20513;-76
2023/09/17 13:50:50;;;;;;;3.00;2.80;;;;;;;;;;5149240;27;20457;-77
2023/09/17 13:53:17;;;;;;;2.97;2.60;;;;;;;;;;5151271;27;20018;-77
2023/09/17 13:55:43;;;;;;;2.90;2.70;;;;;;;;;;5152465;27;20174;-77
2023/09/17 13:58:10;;;;;;;2.80;2.60;;;;;;;;;;5138676;27;20027;-77
2023/09/17 14:00:36;;;;;;;3.10;2.90;;;;;;;;;;5124832;28;20068;-76
2023/09/17 14:03:03;;;;;;;3.17;2.85;;;;;;;;;;5125974;28;20106;-77
2023/09/17 14:05:31;;;;;;;2.97;2.78;;;;;;;;;;5126963;28;20378;-76
2023/09/17 14:07:57;;;;;;;2.75;2.55;;;;;;;;;;5137074;27;20016;-77
2023/09/17 14:10:23;;;;;;;2.70;2.50;;;;;;;;;;5149134;27;20020;-77
2023/09/17 14:12:49;;;;;;;2.90;2.70;;;;;;;;;;5124469;28;20031;-76
2023/09/17 14:15:15;;;;;;;2.95;2.60;;;;;;;;;;5124599;28;20031;-77
2023/09/17 14:17:42;;;;;;;2.30;2.20;;;;;;;;;;5125168;28;20019;-77
2023/09/17 14:20:09;;;;;;;2.70;2.50;;;;;;;;;;5143775;27;20043;-76
2023/09/17 14:22:35;;;;;;;2.53;2.33;;;;;;;;;;5146060;27;20229;-77
2023/09/17 14:25:03;;;;;;;2.97;2.60;;;;;;;;;;5151337;27;20084;-77
2023/09/17 14:27:29;;;;;;;2.42;2.33;;;;;;;;;;5155123;27;20019;-76
2023/09/17 14:30:04;;;;;;;2.50;2.40;;;;;;;;;;5129110;27;20386;-78
2023/09/17 14:32:31;;;;;;;2.40;2.30;;;;;;;;;;5115222;28;20031;-78
2023/09/17 14:34:58;;;;;;;2.30;2.20;;;;;;;;;;5115915;28;20028;-78
2023/09/17 14:37:25;;;;;;;2.40;2.30;;;;;;;;;;5123864;27;20167;-78
2023/09/17 14:39:51;;;;;;;2.50;2.30;;;;;;;;;;5139392;27;20027;-78
2023/09/17 14:42:17;;;;;;;2.80;2.60;;;;;;;;;;5136500;27;20031;-79
2023/09/17 14:44:43;;;;;;;2.28;2.17;;;;;;;;;;5137261;27;20015;-78